Time;durP1;ratioP1;P1;durP2;ratioP2;P2;SDS_P1;SDS_P2;PMS_P1;PMS_P2;Temp;Humidity;BMP_temperature;BMP_pressure;BME280_temperature;BME280_humidity;BME280_pressure;Samples;Min_cycle;Max_cycle;Signal;HPM_P1;HPM_P2
2022/01/03 00:02:07;;;;;;;59.37;2.90;;;;;;;;;;5074080;28;20480;-63
2022/01/03 00:04:34;;;;;;;60.10;3.90;;;;;;;;;;5074259;28;20446;-64
2022/01/03 00:07:02;;;;;;;65.90;3.20;;;;;;;;;;5074096;28;20558;-65
2022/01/03 00:09:29;;;;;;;62.17;3.83;;;;;;;;;;5072866;28;20450;-62
2022/01/03 00:11:56;;;;;;;58.53;2.90;;;;;;;;;;5074086;28;20472;-63
2022/01/03 00:14:28;;;;;;;59.53;3.37;;;;;;;;;;5073900;28;20447;-62
2022/01/03 00:16:55;;;;;;;59.73;3.07;;;;;;;;;;5074026;28;20448;-63
2022/01/03 00:19:22;;;;;;;59.43;3.00;;;;;;;;;;5073816;28;20530;-64
2022/01/03 00:21:49;;;;;;;58.27;3.03;;;;;;;;;;5073952;28;20553;-63
2022/01/03 00:24:21;;;;;;;63.43;2.93;;;;;;;;;;5073842;28;20826;-63
2022/01/03 00:26:51;;;;;;;59.77;3.60;;;;;;;;;;5073855;28;20489;-64
2022/01/03 00:29:20;;;;;;;59.97;3.57;;;;;;;;;;5070524;28;20543;-65
2022/01/03 00:31:49;;;;;;;60.97;3.10;;;;;;;;;;5073740;28;20820;-64
2022/01/03 00:34:16;;;;;;;61.87;3.20;;;;;;;;;;5073492;28;20968;-63
2022/01/03 00:36:46;;;;;;;58.57;3.10;;;;;;;;;;5073721;28;20538;-64
2022/01/03 00:39:13;;;;;;;60.00;3.20;;;;;;;;;;5073765;28;20811;-64
2022/01/03 00:41:42;;;;;;;59.53;3.07;;;;;;;;;;5073303;28;20472;-63
2022/01/03 00:44:10;;;;;;;62.60;3.53;;;;;;;;;;5073580;28;20454;-64
2022/01/03 00:46:37;;;;;;;58.90;3.63;;;;;;;;;;5073244;28;21049;-65
2022/01/03 00:49:06;;;;;;;58.93;3.07;;;;;;;;;;5073055;28;20446;-67
2022/01/03 00:51:33;;;;;;;59.37;3.37;;;;;;;;;;5073341;28;20464;-68
2022/01/03 00:54:00;;;;;;;59.27;3.03;;;;;;;;;;5073193;28;20863;-67
2022/01/03 00:56:29;;;;;;;60.30;2.90;;;;;;;;;;5073303;28;20514;-67
2022/01/03 00:59:00;;;;;;;58.77;2.97;;;;;;;;;;5072938;28;20448;-67
2022/01/03 01:01:28;;;;;;;59.47;3.10;;;;;;;;;;5071021;28;21013;-69
2022/01/03 01:03:56;;;;;;;59.57;2.70;;;;;;;;;;5073209;28;20448;-70
2022/01/03 01:06:26;;;;;;;60.23;3.13;;;;;;;;;;5072784;28;20522;-71
2022/01/03 01:08:56;;;;;;;58.70;2.90;;;;;;;;;;5072553;28;20448;-70
2022/01/03 01:11:26;;;;;;;60.57;2.90;;;;;;;;;;5073102;28;20485;-70
2022/01/03 01:13:54;;;;;;;58.70;3.10;;;;;;;;;;5072827;28;20455;-69
2022/01/03 01:16:21;;;;;;;59.47;3.20;;;;;;;;;;5072937;28;20823;-69
2022/01/03 01:18:49;;;;;;;60.00;3.60;;;;;;;;;;5072472;28;20556;-69
2022/01/03 01:21:17;;;;;;;64.50;3.03;;;;;;;;;;5072477;28;20979;-70
2022/01/03 01:23:46;;;;;;;59.17;2.90;;;;;;;;;;5072929;28;20455;-69
2022/01/03 01:29:06;;;;;;;59.37;3.00;;;;;;;;;;5047580;28;20501;-69
2022/01/03 01:31:35;;;;;;;62.37;3.43;;;;;;;;;;5064516;28;20507;-69
2022/01/03 01:34:03;;;;;;;58.17;2.40;;;;;;;;;;5052419;28;20827;-68
2022/01/03 01:36:30;;;;;;;58.87;2.77;;;;;;;;;;5052753;28;20437;-70
2022/01/03 01:39:04;;;;;;;59.17;3.03;;;;;;;;;;5052360;28;20443;-70
2022/01/03 01:41:31;;;;;;;60.10;3.30;;;;;;;;;;5052497;28;20896;-70
2022/01/03 01:43:59;;;;;;;59.57;2.80;;;;;;;;;;5052591;28;20440;-69
2022/01/03 01:46:26;;;;;;;60.53;3.20;;;;;;;;;;5052167;28;20861;-69
2022/01/03 01:48:54;;;;;;;59.27;2.80;;;;;;;;;;5052162;28;20901;-69
2022/01/03 01:51:23;;;;;;;61.57;3.13;;;;;;;;;;5052053;28;21007;-70
2022/01/03 01:53:51;;;;;;;60.30;3.13;;;;;;;;;;5052106;28;20449;-70
2022/01/03 01:56:21;;;;;;;58.90;3.20;;;;;;;;;;5052608;28;20614;-69
2022/01/03 01:59:08;;;;;;;66.17;3.27;;;;;;;;;;5051762;28;21017;-69
2022/01/03 02:01:41;;;;;;;59.67;2.90;;;;;;;;;;5051887;28;20496;-69
2022/01/03 02:04:15;;;;;;;62.63;4.00;;;;;;;;;;5050792;28;20487;-69
2022/01/03 02:06:45;;;;;;;59.47;3.37;;;;;;;;;;5051989;28;20866;-68
2022/01/03 02:09:19;;;;;;;59.07;2.93;;;;;;;;;;5049538;28;20547;-69
2022/01/03 02:11:51;;;;;;;59.10;2.90;;;;;;;;;;5051951;28;20988;-69
2022/01/03 02:14:19;;;;;;;62.83;3.40;;;;;;;;;;5051830;28;20952;-69
2022/01/03 02:16:46;;;;;;;64.90;3.20;;;;;;;;;;5051936;28;20449;-68
2022/01/03 02:19:14;;;;;;;59.40;3.30;;;;;;;;;;5051677;28;20449;-69
2022/01/03 02:21:42;;;;;;;58.60;3.20;;;;;;;;;;5052044;28;20495;-68
2022/01/03 02:24:10;;;;;;;59.77;2.70;;;;;;;;;;5051782;28;20891;-69
2022/01/03 02:26:37;;;;;;;60.10;3.30;;;;;;;;;;5051864;28;20480;-69
2022/01/03 02:29:04;;;;;;;60.77;3.13;;;;;;;;;;5051262;28;20836;-69
2022/01/03 02:31:32;;;;;;;59.33;3.00;;;;;;;;;;5051233;28;20563;-68
2022/01/03 02:34:01;;;;;;;62.10;3.40;;;;;;;;;;5053874;28;20769;-69
2022/01/03 02:36:29;;;;;;;62.50;3.37;;;;;;;;;;5071980;28;20448;-70
2022/01/03 02:38:57;;;;;;;63.70;3.20;;;;;;;;;;5071441;28;20447;-70
2022/01/03 02:41:24;;;;;;;58.63;2.80;;;;;;;;;;5071533;28;20475;-69
2022/01/03 02:43:52;;;;;;;60.87;2.60;;;;;;;;;;5071392;28;20455;-69
2022/01/03 02:46:19;;;;;;;60.30;3.00;;;;;;;;;;5071774;28;20863;-69
2022/01/03 02:48:46;;;;;;;59.67;2.83;;;;;;;;;;5071540;28;20544;-69
2022/01/03 02:51:14;;;;;;;60.10;3.70;;;;;;;;;;5071681;28;20551;-69
2022/01/03 02:53:41;;;;;;;59.20;3.30;;;;;;;;;;5071458;28;20458;-69
2022/01/03 02:56:09;;;;;;;59.40;3.30;;;;;;;;;;5071457;28;20439;-67
2022/01/03 02:58:36;;;;;;;58.70;3.23;;;;;;;;;;5071360;28;20443;-69
2022/01/03 03:01:04;;;;;;;61.97;3.87;;;;;;;;;;5071613;28;20464;-69
2022/01/03 03:03:32;;;;;;;59.20;3.00;;;;;;;;;;5071681;28;20452;-69
2022/01/03 03:05:59;;;;;;;59.63;3.20;;;;;;;;;;5068788;28;20486;-69
2022/01/03 03:08:27;;;;;;;60.17;3.00;;;;;;;;;;5071068;28;20443;-69
2022/01/03 03:10:54;;;;;;;63.13;3.20;;;;;;;;;;5071074;28;20550;-69
2022/01/03 03:13:23;;;;;;;61.00;3.60;;;;;;;;;;5071565;28;20454;-69
2022/01/03 03:15:50;;;;;;;59.33;3.20;;;;;;;;;;5071706;28;20804;-69
2022/01/03 03:18:17;;;;;;;58.83;3.30;;;;;;;;;;5071142;28;20454;-69
2022/01/03 03:20:45;;;;;;;62.07;3.40;;;;;;;;;;5071225;28;20472;-69
2022/01/03 03:23:12;;;;;;;60.67;4.03;;;;;;;;;;5071139;28;20804;-69
2022/01/03 03:25:39;;;;;;;63.13;3.27;;;;;;;;;;5071084;28;20947;-69
2022/01/03 03:28:07;;;;;;;59.77;2.80;;;;;;;;;;5070938;28;20940;-69
2022/01/03 03:30:37;;;;;;;60.70;3.20;;;;;;;;;;5071225;28;20464;-69
2022/01/03 03:33:06;;;;;;;62.97;3.70;;;;;;;;;;5071232;28;20439;-69
2022/01/03 03:35:33;;;;;;;59.87;2.90;;;;;;;;;;5071424;28;20444;-69
2022/01/03 03:38:00;;;;;;;59.57;2.70;;;;;;;;;;5068233;28;20452;-69
2022/01/03 03:40:28;;;;;;;61.00;3.40;;;;;;;;;;5071188;28;20823;-69
2022/01/03 03:42:55;;;;;;;58.60;2.87;;;;;;;;;;5071319;28;20448;-69
2022/01/03 03:45:22;;;;;;;59.60;3.13;;;;;;;;;;5074712;28;20450;-69
2022/01/03 03:47:51;;;;;;;60.80;3.10;;;;;;;;;;5074365;28;20483;-69
2022/01/03 03:50:19;;;;;;;60.53;3.00;;;;;;;;;;5074339;28;20474;-69
2022/01/03 03:52:46;;;;;;;60.17;2.90;;;;;;;;;;5074690;28;20828;-69
2022/01/03 03:55:13;;;;;;;61.00;3.30;;;;;;;;;;5074647;28;20448;-69
2022/01/03 03:57:40;;;;;;;62.30;3.10;;;;;;;;;;5074338;28;20803;-69
2022/01/03 04:00:08;;;;;;;59.50;2.97;;;;;;;;;;5074367;28;20452;-69
2022/01/03 04:02:35;;;;;;;58.33;3.10;;;;;;;;;;5074301;28;20454;-69
2022/01/03 04:05:04;;;;;;;61.23;3.07;;;;;;;;;;5074031;28;20454;-69
2022/01/03 04:07:31;;;;;;;58.90;3.00;;;;;;;;;;5073872;28;20494;-69
2022/01/03 04:09:58;;;;;;;60.40;2.90;;;;;;;;;;5062167;28;20587;-69
2022/01/03 04:12:27;;;;;;;62.10;3.10;;;;;;;;;;5053895;28;21001;-69
2022/01/03 04:14:54;;;;;;;59.40;3.00;;;;;;;;;;5054054;28;20460;-69
2022/01/03 04:17:21;;;;;;;63.20;3.23;;;;;;;;;;5054214;28;20449;-69
2022/01/03 04:19:48;;;;;;;61.13;2.90;;;;;;;;;;5054096;28;20455;-69
2022/01/03 04:22:17;;;;;;;60.30;3.57;;;;;;;;;;5054163;28;20469;-69
2022/01/03 04:24:44;;;;;;;61.77;2.90;;;;;;;;;;5053864;28;20802;-69
2022/01/03 04:27:11;;;;;;;59.20;3.17;;;;;;;;;;5053511;28;20606;-69
2022/01/03 04:29:38;;;;;;;61.07;3.10;;;;;;;;;;5053841;28;20535;-69
2022/01/03 04:32:06;;;;;;;59.57;2.70;;;;;;;;;;5053478;28;20475;-69
2022/01/03 04:34:33;;;;;;;58.90;2.73;;;;;;;;;;5053782;28;20535;-70
2022/01/03 04:37:00;;;;;;;60.77;3.00;;;;;;;;;;5053618;28;20929;-69
2022/01/03 04:39:28;;;;;;;60.33;3.40;;;;;;;;;;5053316;28;20846;-69
2022/01/03 04:41:55;;;;;;;60.37;3.10;;;;;;;;;;5051644;28;21044;-70
2022/01/03 04:44:23;;;;;;;60.37;3.80;;;;;;;;;;5053683;28;20459;-69
2022/01/03 04:46:51;;;;;;;60.77;2.93;;;;;;;;;;5053498;28;20488;-69
2022/01/03 04:49:18;;;;;;;59.33;3.13;;;;;;;;;;5053414;28;20453;-71
2022/01/03 04:51:45;;;;;;;60.00;2.90;;;;;;;;;;5053421;28;20465;-69
2022/01/03 04:54:12;;;;;;;60.67;3.00;;;;;;;;;;5052745;28;20445;-69
2022/01/03 04:56:41;;;;;;;59.23;3.00;;;;;;;;;;5053296;28;20447;-68
2022/01/03 04:59:08;;;;;;;62.87;3.20;;;;;;;;;;5052830;28;21011;-69
2022/01/03 05:01:35;;;;;;;58.40;2.80;;;;;;;;;;5052978;28;20460;-69
2022/01/03 05:04:02;;;;;;;60.30;3.30;;;;;;;;;;5053071;28;20536;-69
2022/01/03 05:06:30;;;;;;;59.50;2.80;;;;;;;;;;5052919;28;20575;-69
2022/01/03 05:08:57;;;;;;;61.43;2.73;;;;;;;;;;5052751;28;20448;-69
2022/01/03 05:11:24;;;;;;;58.50;2.80;;;;;;;;;;5050995;28;20472;-69
2022/01/03 05:13:52;;;;;;;62.40;3.00;;;;;;;;;;5052658;28;20454;-69
2022/01/03 05:16:19;;;;;;;60.10;3.13;;;;;;;;;;5052996;28;20455;-69
2022/01/03 05:18:47;;;;;;;60.50;3.00;;;;;;;;;;5052699;28;20955;-69
2022/01/03 05:21:15;;;;;;;60.27;3.17;;;;;;;;;;5052837;28;20464;-69
2022/01/03 05:23:42;;;;;;;59.77;3.20;;;;;;;;;;5052629;28;20459;-69
2022/01/03 05:26:10;;;;;;;61.50;3.03;;;;;;;;;;5052438;28;20499;-69
2022/01/03 05:28:37;;;;;;;58.60;2.93;;;;;;;;;;5052513;28;20488;-69
2022/01/03 05:31:06;;;;;;;61.13;2.90;;;;;;;;;;5052658;28;20464;-69
2022/01/03 05:33:33;;;;;;;59.67;3.17;;;;;;;;;;5052792;28;20456;-69
2022/01/03 05:36:00;;;;;;;59.33;3.00;;;;;;;;;;5052486;28;20531;-69
2022/01/03 05:38:27;;;;;;;59.97;3.20;;;;;;;;;;5052127;28;20531;-69
2022/01/03 05:40:54;;;;;;;60.60;3.43;;;;;;;;;;5052274;28;20766;-69
2022/01/03 05:43:21;;;;;;;59.37;3.00;;;;;;;;;;5050665;28;20479;-69
2022/01/03 05:45:49;;;;;;;60.43;2.97;;;;;;;;;;5052332;28;20543;-69
2022/01/03 05:48:17;;;;;;;60.70;3.23;;;;;;;;;;5051904;28;21084;-69
2022/01/03 05:50:44;;;;;;;61.23;3.10;;;;;;;;;;5052199;28;20490;-69
2022/01/03 05:53:11;;;;;;;62.37;3.57;;;;;;;;;;5051936;28;21013;-69
2022/01/03 05:55:38;;;;;;;64.40;3.20;;;;;;;;;;5052098;28;20933;-69
2022/01/03 05:58:06;;;;;;;61.23;2.90;;;;;;;;;;5051723;28;20441;-69
2022/01/03 06:00:33;;;;;;;64.00;3.13;;;;;;;;;;5052168;28;20563;-69
2022/01/03 06:03:00;;;;;;;59.87;2.83;;;;;;;;;;5052035;28;20525;-69
2022/01/03 06:05:39;;;;;;;58.60;3.33;;;;;;;;;;5051582;28;20835;-69
2022/01/03 06:08:06;;;;;;;62.27;3.80;;;;;;;;;;5051448;28;20484;-69
2022/01/03 06:10:33;;;;;;;60.87;2.90;;;;;;;;;;5052133;28;20551;-70
2022/01/03 06:13:00;;;;;;;71.53;3.80;;;;;;;;;;5051775;28;20476;-69
2022/01/03 06:15:28;;;;;;;62.10;3.27;;;;;;;;;;5065422;28;20955;-69
2022/01/03 06:17:55;;;;;;;61.20;3.40;;;;;;;;;;5071617;28;20534;-69
2022/01/03 06:20:22;;;;;;;61.63;3.60;;;;;;;;;;5071669;28;20948;-69
2022/01/03 06:22:51;;;;;;;58.50;3.00;;;;;;;;;;5072060;28;20532;-69
2022/01/03 06:25:18;;;;;;;61.70;3.30;;;;;;;;;;5072208;28;20974;-69
2022/01/03 06:27:45;;;;;;;62.30;3.67;;;;;;;;;;5072227;28;20494;-69
2022/01/03 06:30:12;;;;;;;64.03;3.60;;;;;;;;;;5071701;28;20444;-69
2022/01/03 06:32:39;;;;;;;64.40;3.40;;;;;;;;;;5071638;28;20531;-69
2022/01/03 06:35:07;;;;;;;64.73;3.57;;;;;;;;;;5071347;28;20464;-69
2022/01/03 06:37:34;;;;;;;63.37;3.53;;;;;;;;;;5071465;28;20472;-69
2022/01/03 06:40:02;;;;;;;59.07;3.07;;;;;;;;;;5071692;28;20456;-69
2022/01/03 06:42:30;;;;;;;63.80;3.60;;;;;;;;;;5071569;28;20847;-69
2022/01/03 06:44:57;;;;;;;64.70;4.10;;;;;;;;;;5069115;28;20530;-69
2022/01/03 06:47:24;;;;;;;61.40;3.67;;;;;;;;;;5071086;28;20489;-69
2022/01/03 06:49:51;;;;;;;67.93;3.70;;;;;;;;;;5071984;28;20538;-69
2022/01/03 06:52:18;;;;;;;61.03;3.43;;;;;;;;;;5071547;28;20467;-69
2022/01/03 06:54:46;;;;;;;60.50;3.20;;;;;;;;;;5071649;28;20448;-69
2022/01/03 06:57:15;;;;;;;59.47;3.43;;;;;;;;;;5071150;28;20534;-69
2022/01/03 06:59:42;;;;;;;63.07;3.20;;;;;;;;;;5071488;28;20491;-69
2022/01/03 07:02:10;;;;;;;66.77;4.53;;;;;;;;;;5071172;28;20912;-69
2022/01/03 07:04:37;;;;;;;62.63;3.23;;;;;;;;;;5071566;28;20839;-69
2022/01/03 07:07:04;;;;;;;65.77;4.53;;;;;;;;;;5071163;28;20575;-69
2022/01/03 07:09:31;;;;;;;59.50;3.40;;;;;;;;;;5071290;28;20535;-69
2022/01/03 07:11:58;;;;;;;61.47;4.00;;;;;;;;;;5071391;28;20905;-70
2022/01/03 07:19:58;;;;;;;61.03;3.40;;;;;;;;;;5075192;28;20494;-70
2022/01/03 07:22:25;;;;;;;59.60;3.40;;;;;;;;;;5062686;28;20476;-70
2022/01/03 07:24:53;;;;;;;62.83;3.50;;;;;;;;;;5054850;28;20491;-69
2022/01/03 07:27:20;;;;;;;61.33;3.57;;;;;;;;;;5054773;28;20575;-70
2022/01/03 07:29:50;;;;;;;63.10;3.20;;;;;;;;;;5054846;28;20535;-70
2022/01/03 07:32:18;;;;;;;63.50;3.90;;;;;;;;;;5054844;28;20484;-71
2022/01/03 07:34:45;;;;;;;58.67;3.30;;;;;;;;;;5054774;28;20455;-70
2022/01/03 07:37:12;;;;;;;62.67;3.47;;;;;;;;;;5054868;28;20447;-69
2022/01/03 07:39:39;;;;;;;60.37;4.00;;;;;;;;;;5054506;28;20539;-69
2022/01/03 07:42:07;;;;;;;60.90;3.60;;;;;;;;;;5054499;28;20992;-69
2022/01/03 07:44:34;;;;;;;60.30;4.60;;;;;;;;;;5054611;28;20536;-70
2022/01/03 07:47:03;;;;;;;63.20;3.50;;;;;;;;;;5054153;28;20448;-69
2022/01/03 07:49:30;;;;;;;59.10;3.50;;;;;;;;;;5052596;28;20982;-69
2022/01/03 07:51:58;;;;;;;60.10;3.80;;;;;;;;;;5054317;28;20500;-69
2022/01/03 07:54:25;;;;;;;61.73;3.93;;;;;;;;;;5054401;28;20452;-69
2022/01/03 07:56:53;;;;;;;61.80;3.83;;;;;;;;;;5054243;28;20449;-69
2022/01/03 07:59:20;;;;;;;60.60;3.87;;;;;;;;;;5054166;28;20839;-69
2022/01/03 08:01:47;;;;;;;62.17;3.60;;;;;;;;;;5054491;28;20468;-69
2022/01/03 08:04:15;;;;;;;66.50;4.17;;;;;;;;;;5054213;28;20451;-69
2022/01/03 08:06:42;;;;;;;60.47;3.80;;;;;;;;;;5054081;28;20460;-70
2022/01/03 08:09:10;;;;;;;67.20;4.07;;;;;;;;;;5054030;28;20480;-69
2022/01/03 08:11:37;;;;;;;59.80;4.07;;;;;;;;;;5054050;28;21080;-69
2022/01/03 08:14:04;;;;;;;68.33;5.87;;;;;;;;;;5053973;28;20445;-69
2022/01/03 08:16:31;;;;;;;66.60;5.40;;;;;;;;;;5054019;28;20536;-69
2022/01/03 08:18:58;;;;;;;65.90;4.80;;;;;;;;;;5051752;28;20452;-69
2022/01/03 08:21:27;;;;;;;68.77;4.80;;;;;;;;;;5053798;28;20559;-69
2022/01/03 08:23:54;;;;;;;63.77;5.10;;;;;;;;;;5053673;28;20536;-68
2022/01/03 08:26:21;;;;;;;61.87;4.43;;;;;;;;;;5053980;28;20444;-71
2022/01/03 08:28:48;;;;;;;68.43;5.20;;;;;;;;;;5052676;28;20495;-69
2022/01/03 08:31:15;;;;;;;63.40;4.70;;;;;;;;;;5053568;28;20988;-69
2022/01/03 08:33:43;;;;;;;63.77;5.27;;;;;;;;;;5053440;28;20520;-69
2022/01/03 08:36:10;;;;;;;68.47;6.00;;;;;;;;;;5053531;28;20452;-69
2022/01/03 08:38:39;;;;;;;64.57;5.73;;;;;;;;;;5053289;28;20475;-70
2022/01/03 08:41:06;;;;;;;66.67;4.90;;;;;;;;;;5053469;28;20471;-68
2022/01/03 08:43:33;;;;;;;68.23;4.97;;;;;;;;;;5053475;28;20544;-68
2022/01/03 08:46:00;;;;;;;68.67;4.60;;;;;;;;;;5053464;28;20451;-69
2022/01/03 08:48:28;;;;;;;63.00;5.60;;;;;;;;;;5052957;28;20495;-70
2022/01/03 08:50:55;;;;;;;62.43;4.80;;;;;;;;;;5062155;28;20531;-69
2022/01/03 08:53:26;;;;;;;66.70;6.30;;;;;;;;;;5073460;28;20534;-69
2022/01/03 08:55:55;;;;;;;64.30;5.13;;;;;;;;;;5073412;28;20859;-69
2022/01/03 08:58:23;;;;;;;68.87;5.33;;;;;;;;;;5073055;28;20527;-69
2022/01/03 09:00:50;;;;;;;74.30;6.00;;;;;;;;;;5072903;28;20503;-69
2022/01/03 09:03:17;;;;;;;65.20;5.80;;;;;;;;;;5073270;28;20454;-69
2022/01/03 09:05:44;;;;;;;67.70;5.00;;;;;;;;;;5073129;28;20483;-69
2022/01/03 09:08:12;;;;;;;62.90;5.17;;;;;;;;;;5072784;28;20571;-69
2022/01/03 09:10:40;;;;;;;65.40;6.10;;;;;;;;;;5072964;28;20555;-69
2022/01/03 09:13:08;;;;;;;67.93;5.57;;;;;;;;;;5072846;28;20440;-69
2022/01/03 09:15:37;;;;;;;62.23;5.93;;;;;;;;;;5072869;28;20444;-68
2022/01/03 09:18:05;;;;;;;69.67;5.87;;;;;;;;;;5072521;28;20440;-68
2022/01/03 09:20:32;;;;;;;66.10;6.67;;;;;;;;;;5072975;28;20555;-68
2022/01/03 09:23:07;;;;;;;64.63;5.73;;;;;;;;;;5052771;28;20449;-68
2022/01/03 09:31:18;;;;;;;68.70;7.23;;;;;;;;;;5010495;28;20451;-68
2022/01/03 09:33:45;;;;;;;68.93;6.90;;;;;;;;;;5042331;28;20492;-68
2022/01/03 09:36:12;;;;;;;65.83;7.50;;;;;;;;;;5052390;28;20456;-68
2022/01/03 09:38:40;;;;;;;66.37;6.40;;;;;;;;;;5052211;28;21020;-67
2022/01/03 09:41:07;;;;;;;67.87;6.83;;;;;;;;;;5052284;28;20479;-68
2022/01/03 09:43:42;;;;;;;68.80;7.80;;;;;;;;;;5052441;28;20851;-67
2022/01/03 09:46:11;;;;;;;75.53;7.63;;;;;;;;;;5052269;28;20531;-68
2022/01/03 09:48:39;;;;;;;69.70;6.60;;;;;;;;;;5051651;28;20477;-68
2022/01/03 09:51:06;;;;;;;68.00;7.10;;;;;;;;;;5052567;28;20472;-71
2022/01/03 09:53:34;;;;;;;67.00;6.10;;;;;;;;;;5062781;28;20460;-70
2022/01/03 09:56:02;;;;;;;65.63;6.50;;;;;;;;;;5072262;28;20525;-69
2022/01/03 09:58:29;;;;;;;66.03;6.10;;;;;;;;;;5071813;28;20995;-70
2022/01/03 10:00:57;;;;;;;64.80;6.33;;;;;;;;;;5072042;28;20467;-70
2022/01/03 10:03:25;;;;;;;65.43;6.40;;;;;;;;;;5071851;28;20483;-71
2022/01/03 10:05:52;;;;;;;61.80;5.80;;;;;;;;;;5072053;28;21040;-71
2022/01/03 10:08:19;;;;;;;64.27;6.23;;;;;;;;;;5071829;28;20488;-71
2022/01/03 10:10:46;;;;;;;68.90;6.50;;;;;;;;;;5072050;28;20554;-70
2022/01/03 10:13:15;;;;;;;64.93;6.60;;;;;;;;;;5071940;28;20472;-71
2022/01/03 10:15:42;;;;;;;64.67;6.20;;;;;;;;;;5071763;28;20459;-71
2022/01/03 10:18:18;;;;;;;74.27;6.70;;;;;;;;;;5071461;28;20527;-71
2022/01/03 10:20:45;;;;;;;69.33;6.77;;;;;;;;;;5072026;28;20482;-70
2022/01/03 10:23:14;;;;;;;64.43;5.53;;;;;;;;;;5070689;28;20447;-68
2022/01/03 10:25:41;;;;;;;65.43;4.87;;;;;;;;;;5031540;28;20539;-70
2022/01/03 10:28:09;;;;;;;68.40;4.10;;;;;;;;;;5031445;28;20477;-70
2022/01/03 10:30:38;;;;;;;70.47;4.77;;;;;;;;;;5031766;28;20552;-70
2022/01/03 10:33:06;;;;;;;66.13;4.80;;;;;;;;;;5031984;28;20853;-70
2022/01/03 10:35:41;;;;;;;61.90;4.50;;;;;;;;;;5031666;28;20508;-69
2022/01/03 10:38:09;;;;;;;65.80;4.43;;;;;;;;;;5031432;28;20442;-69
2022/01/03 10:40:37;;;;;;;63.70;4.70;;;;;;;;;;5031718;28;20474;-68
2022/01/03 10:43:15;;;;;;;64.03;3.47;;;;;;;;;;5031788;28;20821;-69
2022/01/03 10:45:42;;;;;;;67.13;4.27;;;;;;;;;;5031799;28;20449;-69
2022/01/03 10:48:24;;;;;;;59.43;2.90;;;;;;;;;;5031218;28;21075;-69
2022/01/03 10:50:53;;;;;;;60.20;3.53;;;;;;;;;;5031437;28;20505;-69
2022/01/03 10:53:32;;;;;;;65.03;3.50;;;;;;;;;;5034033;28;20939;-69
2022/01/03 10:55:59;;;;;;;64.00;3.70;;;;;;;;;;5047262;28;20819;-69
2022/01/03 10:58:33;;;;;;;62.10;4.37;;;;;;;;;;5055267;28;20444;-70
2022/01/03 11:01:00;;;;;;;66.60;3.83;;;;;;;;;;5055338;28;20988;-71
2022/01/03 11:03:31;;;;;;;60.37;3.20;;;;;;;;;;5055330;28;20452;-71
2022/01/03 11:06:12;;;;;;;67.47;3.90;;;;;;;;;;5055115;28;20496;-70
2022/01/03 11:11:34;;;;;;;64.87;3.50;;;;;;;;;;5055199;28;20956;-69
2022/01/03 11:14:01;;;;;;;62.60;4.10;;;;;;;;;;5055095;28;20475;-69
2022/01/03 11:16:32;;;;;;;61.07;3.07;;;;;;;;;;5054994;28;21011;-71
2022/01/03 11:18:59;;;;;;;59.67;3.20;;;;;;;;;;5054879;28;20451;-71
2022/01/03 11:21:28;;;;;;;58.70;3.40;;;;;;;;;;5055008;28;20470;-69
2022/01/03 11:24:04;;;;;;;62.03;3.30;;;;;;;;;;5054871;28;20949;-69
2022/01/03 11:26:33;;;;;;;62.57;4.77;;;;;;;;;;5060189;28;20490;-69
2022/01/03 11:29:01;;;;;;;60.03;3.13;;;;;;;;;;5074768;28;20909;-69
2022/01/03 11:31:32;;;;;;;61.67;3.47;;;;;;;;;;5074918;28;20475;-69
2022/01/03 11:33:59;;;;;;;62.33;4.10;;;;;;;;;;5074949;28;20454;-69
2022/01/03 11:36:28;;;;;;;59.83;3.13;;;;;;;;;;5074780;28;20538;-69
2022/01/03 11:38:56;;;;;;;75.03;5.00;;;;;;;;;;5074568;28;20446;-69
2022/01/03 11:41:24;;;;;;;61.63;3.50;;;;;;;;;;5074504;28;20971;-69
2022/01/03 11:43:51;;;;;;;62.30;3.07;;;;;;;;;;5074582;28;20447;-69
2022/01/03 11:46:19;;;;;;;62.33;3.33;;;;;;;;;;5074512;28;20496;-69
2022/01/03 11:48:47;;;;;;;60.37;3.50;;;;;;;;;;5074320;28;20847;-70
2022/01/03 11:51:14;;;;;;;60.00;3.10;;;;;;;;;;5074531;28;20472;-70
2022/01/03 11:53:45;;;;;;;60.00;2.80;;;;;;;;;;5074267;28;20831;-68
2022/01/03 11:56:16;;;;;;;60.87;3.23;;;;;;;;;;5074480;28;20535;-67
2022/01/03 11:58:57;;;;;;;59.87;3.30;;;;;;;;;;5072164;28;20452;-69
2022/01/03 12:04:14;;;;;;;62.07;3.40;;;;;;;;;;5053309;28;20432;-68
2022/01/03 12:06:42;;;;;;;65.93;3.60;;;;;;;;;;5054046;28;20949;-68
2022/01/03 12:09:11;;;;;;;60.00;2.70;;;;;;;;;;5054012;28;20867;-69
2022/01/03 12:11:46;;;;;;;62.80;3.30;;;;;;;;;;5054105;28;21009;-69
2022/01/03 12:14:14;;;;;;;63.47;3.57;;;;;;;;;;5053921;28;20455;-68
2022/01/03 12:16:46;;;;;;;64.90;3.27;;;;;;;;;;5053931;28;20832;-68
2022/01/03 12:19:14;;;;;;;62.50;3.27;;;;;;;;;;5053842;28;20447;-68
2022/01/03 12:21:52;;;;;;;60.10;3.27;;;;;;;;;;5054027;28;20992;-69
2022/01/03 12:24:38;;;;;;;59.00;3.03;;;;;;;;;;5054275;28;20806;-69
2022/01/03 12:27:26;;;;;;;60.00;2.80;;;;;;;;;;5053542;28;20453;-70
2022/01/03 12:30:11;;;;;;;58.40;2.70;;;;;;;;;;5053551;28;20488;-69
2022/01/03 12:32:40;;;;;;;61.07;2.97;;;;;;;;;;5053564;28;20485;-69
2022/01/03 12:35:21;;;;;;;59.80;3.10;;;;;;;;;;5067550;28;20483;-66
2022/01/03 12:37:49;;;;;;;60.20;3.13;;;;;;;;;;5073608;28;20447;-69
2022/01/03 12:40:17;;;;;;;58.37;2.60;;;;;;;;;;5073666;28;20486;-70
2022/01/03 12:42:56;;;;;;;60.77;2.70;;;;;;;;;;5073510;28;20531;-69
2022/01/03 12:45:43;;;;;;;59.47;3.20;;;;;;;;;;5073746;28;20450;-67
2022/01/03 12:48:20;;;;;;;58.30;2.60;;;;;;;;;;5073439;28;20539;-69
2022/01/03 12:50:48;;;;;;;59.60;2.70;;;;;;;;;;5073711;28;20470;-69
2022/01/03 12:53:30;;;;;;;58.27;2.77;;;;;;;;;;5073303;28;21026;-67
2022/01/03 12:55:58;;;;;;;59.87;2.97;;;;;;;;;;5073139;28;20448;-68
2022/01/03 12:58:43;;;;;;;58.47;3.20;;;;;;;;;;5073153;28;20905;-67
2022/01/03 13:01:23;;;;;;;59.00;3.50;;;;;;;;;;5073176;28;20550;-67
2022/01/03 13:03:50;;;;;;;59.33;2.90;;;;;;;;;;5072941;28;20450;-69
2022/01/03 13:06:18;;;;;;;59.10;3.03;;;;;;;;;;5071454;28;20551;-70
2022/01/03 13:09:01;;;;;;;63.43;2.90;;;;;;;;;;5072561;28;20494;-70
2022/01/03 13:11:29;;;;;;;63.90;3.00;;;;;;;;;;5072910;28;20475;-72
2022/01/03 13:14:01;;;;;;;58.80;2.97;;;;;;;;;;5073268;28;20542;-69
2022/01/03 13:16:29;;;;;;;60.53;2.80;;;;;;;;;;5072716;28;20885;-72
2022/01/03 13:18:57;;;;;;;58.40;3.00;;;;;;;;;;5072680;28;20444;-68
2022/01/03 13:21:25;;;;;;;59.77;2.50;;;;;;;;;;5072939;28;20567;-73
2022/01/03 13:23:52;;;;;;;58.73;2.77;;;;;;;;;;5072779;28;20459;-71
2022/01/03 13:26:21;;;;;;;59.60;2.90;;;;;;;;;;5072682;28;20543;-72
2022/01/03 13:28:48;;;;;;;61.20;2.83;;;;;;;;;;5072484;28;20448;-72
2022/01/03 13:31:17;;;;;;;58.87;2.80;;;;;;;;;;5072482;28;20474;-72
2022/01/03 13:33:44;;;;;;;59.23;3.00;;;;;;;;;;5072312;28;20824;-73
2022/01/03 13:36:15;;;;;;;60.20;2.80;;;;;;;;;;5065974;28;20544;-69
2022/01/03 13:38:42;;;;;;;61.30;3.40;;;;;;;;;;5052437;28;20471;-70
2022/01/03 13:41:13;;;;;;;62.37;3.50;;;;;;;;;;5052483;28;20472;-71
2022/01/03 13:43:44;;;;;;;59.90;3.27;;;;;;;;;;5052380;28;20448;-69
2022/01/03 13:49:12;;;;;;;61.33;3.20;;;;;;;;;;5052092;28;20419;-68
2022/01/03 13:51:44;;;;;;;59.80;3.00;;;;;;;;;;5052224;28;20985;-70
2022/01/03 13:54:21;;;;;;;59.60;3.03;;;;;;;;;;5052322;28;20448;-72
2022/01/03 13:56:48;;;;;;;62.10;3.20;;;;;;;;;;5052343;28;20433;-71
2022/01/03 13:59:16;;;;;;;58.23;3.07;;;;;;;;;;5051832;28;20449;-68
2022/01/03 14:01:43;;;;;;;62.10;4.27;;;;;;;;;;5052100;28;20465;-69
2022/01/03 14:04:12;;;;;;;60.47;3.10;;;;;;;;;;5052035;28;20527;-68
2022/01/03 14:06:39;;;;;;;63.23;3.33;;;;;;;;;;5051600;28;20468;-71
2022/01/03 14:09:16;;;;;;;61.90;2.90;;;;;;;;;;5068816;28;20517;-67
2022/01/03 14:11:43;;;;;;;58.33;2.80;;;;;;;;;;5072301;28;20472;-69
2022/01/03 14:14:11;;;;;;;59.30;3.03;;;;;;;;;;5071907;28;20451;-70
2022/01/03 14:16:52;;;;;;;61.07;3.10;;;;;;;;;;5071459;28;20444;-69
2022/01/03 14:19:21;;;;;;;59.30;3.27;;;;;;;;;;5071346;28;20443;-71
2022/01/03 14:21:48;;;;;;;60.10;2.80;;;;;;;;;;5071827;28;20471;-71
2022/01/03 14:24:15;;;;;;;59.17;3.27;;;;;;;;;;5072089;28;20539;-71
2022/01/03 14:26:54;;;;;;;59.97;3.70;;;;;;;;;;5071441;28;20494;-72
2022/01/03 14:29:21;;;;;;;59.70;3.60;;;;;;;;;;5071425;28;20575;-71
2022/01/03 14:31:49;;;;;;;60.97;3.27;;;;;;;;;;5071712;28;20467;-72
2022/01/03 14:34:22;;;;;;;59.03;3.20;;;;;;;;;;5071478;28;20486;-73
2022/01/03 14:36:49;;;;;;;60.43;3.37;;;;;;;;;;5072082;28;20543;-71
2022/01/03 14:39:16;;;;;;;60.30;3.00;;;;;;;;;;5071752;28;20531;-75
2022/01/03 14:41:44;;;;;;;66.87;3.20;;;;;;;;;;5072033;28;20499;-71
2022/01/03 14:44:11;;;;;;;59.23;2.70;;;;;;;;;;5072175;28;20459;-73
2022/01/03 14:46:40;;;;;;;59.60;2.93;;;;;;;;;;5071686;28;20447;-72
2022/01/03 14:49:07;;;;;;;58.80;3.27;;;;;;;;;;5071407;28;20444;-71
2022/01/03 14:51:37;;;;;;;59.23;3.30;;;;;;;;;;5071775;28;20503;-69
2022/01/03 14:54:15;;;;;;;63.50;3.10;;;;;;;;;;5071519;28;20454;-71
2022/01/03 14:56:42;;;;;;;58.10;2.80;;;;;;;;;;5071784;28;20447;-68
2022/01/03 14:59:10;;;;;;;60.10;2.80;;;;;;;;;;5071672;28;20965;-70
2022/01/03 15:01:37;;;;;;;60.33;3.53;;;;;;;;;;5071762;28;20464;-71
2022/01/03 15:04:04;;;;;;;59.80;2.77;;;;;;;;;;5071600;28;20976;-71